Map

Track Data

SID SEASON NUMBER BASIN SUBBASIN NAME ISO_TIME NATURE LAT LON WMO_WIND WMO_PRES WMO_AGENCY TRACK_TYPE DIST2LAND LANDFALL IFLAG USA_AGENCY USA_ATCF_ID USA_LAT USA_LON USA_RECORD USA_STATUS USA_WIND USA_PRES USA_SSHS USA_R34_NE USA_R34_SE USA_R34_SW USA_R34_NW USA_R50_NE USA_R50_SE USA_R50_SW USA_R50_NW USA_R64_NE USA_R64_SE USA_R64_SW USA_R64_NW USA_POCI USA_ROCI USA_RMW USA_EYE TOKYO_LAT TOKYO_LON TOKYO_GRADE TOKYO_WIND TOKYO_PRES TOKYO_R50_DIR TOKYO_R50_LONG TOKYO_R50_SHORT TOKYO_R30_DIR TOKYO_R30_LONG TOKYO_R30_SHORT TOKYO_LAND CMA_LAT CMA_LON CMA_CAT CMA_WIND CMA_PRES HKO_LAT HKO_LON HKO_CAT HKO_WIND HKO_PRES NEWDELHI_LAT NEWDELHI_LON NEWDELHI_GRADE NEWDELHI_WIND NEWDELHI_PRES NEWDELHI_CI NEWDELHI_DP NEWDELHI_POCI REUNION_LAT REUNION_LON REUNION_TYPE REUNION_WIND REUNION_PRES REUNION_TNUM REUNION_CI REUNION_RMW REUNION_R34_NE REUNION_R34_SE REUNION_R34_SW REUNION_R34_NW REUNION_R50_NE REUNION_R50_SE REUNION_R50_SW REUNION_R50_NW REUNION_R64_NE REUNION_R64_SE REUNION_R64_SW REUNION_R64_NW BOM_LAT BOM_LON BOM_TYPE BOM_WIND BOM_PRES BOM_TNUM BOM_CI BOM_RMW BOM_R34_NE BOM_R34_SE BOM_R34_SW BOM_R34_NW BOM_R50_NE BOM_R50_SE BOM_R50_SW BOM_R50_NW BOM_R64_NE BOM_R64_SE BOM_R64_SW BOM_R64_NW BOM_ROCI BOM_POCI BOM_EYE BOM_POS_METHOD BOM_PRES_METHOD NADI_LAT NADI_LON NADI_CAT NADI_WIND NADI_PRES WELLINGTON_LAT WELLINGTON_LON WELLINGTON_WIND WELLINGTON_PRES DS824_LAT DS824_LON DS824_STAGE DS824_WIND DS824_PRES TD9636_LAT TD9636_LON TD9636_STAGE TD9636_WIND TD9636_PRES TD9635_LAT TD9635_LON TD9635_WIND TD9635_PRES TD9635_ROCI NEUMANN_LAT NEUMANN_LON NEUMANN_CLASS NEUMANN_WIND NEUMANN_PRES MLC_LAT MLC_LON MLC_CLASS MLC_WIND MLC_PRES USA_GUST BOM_GUST BOM_GUST_PER REUNION_GUST REUNION_GUST_PER USA_SEAHGT USA_SEARAD_NE USA_SEARAD_SE USA_SEARAD_SW USA_SEARAD_NW STORM_SPEED STORM_DIR
1922140N10128 1922 30 WP MM NOT_NAMED 1922-05-19 22:00:00 NR 10.3000 128.200 main 251 242 __________O___ -1 10.3000 128.200 2 4 268
1922140N10128 1922 30 WP MM NOT_NAMED 1922-05-20 00:00:00 NR 10.2958 128.054 main 242 214 __________P___ -1 10.2958 128.054 2 4 269
1922140N10128 1922 30 WP MM NOT_NAMED 1922-05-20 03:00:00 NR 10.2909 127.834 main 214 196 __________P___ -1 10.2909 127.834 2 4 269
1922140N10128 1922 30 WP MM NOT_NAMED 1922-05-20 06:00:00 NR 10.2902 127.610 main 196 177 __________P___ -1 10.2902 127.610 2 4 271
1922140N10128 1922 30 WP MM NOT_NAMED 1922-05-20 09:00:00 NR 10.2961 127.379 main 177 168 __________P___ -1 10.2961 127.379 2 5 272
1922140N10128 1922 30 WP MM NOT_NAMED 1922-05-20 10:00:00 NR 10.3000 127.300 main 168 150 __________O___ -1 10.3000 127.300 2 5 274
1922140N10128 1922 30 WP MM NOT_NAMED 1922-05-20 12:00:00 NR 10.3109 127.139 main 150 133 __________P___ -1 10.3109 127.139 2 5 275
1922140N10128 1922 30 WP MM NOT_NAMED 1922-05-20 15:00:00 NR 10.3337 126.891 main 133 110 __________P___ -1 10.3337 126.891 2 5 276
1922140N10128 1922 30 WP MM NOT_NAMED 1922-05-20 18:00:00 NR 10.3612 126.639 main 110 93 __________P___ -1 10.3612 126.639 2 5 276
1922140N10128 1922 30 WP MM NOT_NAMED 1922-05-20 21:00:00 NR 10.3904 126.385 main 93 86 __________P___ -1 10.3904 126.385 2 5 277
1922140N10128 1922 30 WP MM NOT_NAMED 1922-05-20 22:00:00 NR 10.4000 126.300 main 86 74 __________O___ -1 10.4000 126.300 2 5 275
1922140N10128 1922 30 WP MM NOT_NAMED 1922-05-21 00:00:00 NR 10.4140 126.133 main 74 66 __________P___ -1 10.4140 126.133 2 5 275
1922140N10128 1922 30 WP MM NOT_NAMED 1922-05-21 03:00:00 NR 10.4350 125.883 main 66 39 __________P___ -1 10.4350 125.883 2 5 275
1922140N10128 1922 30 WP MM NOT_NAMED 1922-05-21 06:00:00 NR 10.4587 125.633 main 39 21 __________P___ -1 10.4587 125.633 2 5 276
1922140N10128 1922 30 WP MM NOT_NAMED 1922-05-21 09:00:00 NR 10.4883 125.383 main 21 10 __________P___ -1 10.4883 125.383 2 5 277
1922140N10128 1922 30 WP MM NOT_NAMED 1922-05-21 10:00:00 NR 10.5000 125.300 main 10 0 __________O___ -1 10.5000 125.300 2 5 277
1922140N10128 1922 30 WP MM NOT_NAMED 1922-05-21 12:00:00 NR 10.5171 125.131 main 0 0 __________P___ -1 10.5171 125.131 2 5 277
1922140N10128 1922 30 WP MM NOT_NAMED 1922-05-21 15:00:00 NR 10.5489 124.877 main 0 0 __________P___ -1 10.5489 124.877 2 5 279
1922140N10128 1922 30 WP MM NOT_NAMED 1922-05-21 18:00:00 NR 10.5963 124.625 main 15 15 __________P___ -1 10.5963 124.625 2 5 284
1922140N10128 1922 30 WP MM NOT_NAMED 1922-05-21 21:00:00 NR 10.6687 124.380 main 22 22 __________P___ -1 10.6687 124.380 2 5 288
1922140N10128 1922 30 WP MM NOT_NAMED 1922-05-21 22:00:00 NR 10.7000 124.300 main 24 10 __________O___ -1 10.7000 124.300 2 5 293
1922140N10128 1922 30 WP MM NOT_NAMED 1922-05-22 00:00:00 NR 10.7693 124.134 main 10 0 __________P___ -1 10.7693 124.134 2 5 296
1922140N10128 1922 30 WP MM NOT_NAMED 1922-05-22 03:00:00 NR 10.8983 123.891 main 0 0 __________P___ -1 10.8983 123.891 2 5 302
1922140N10128 1922 30 WP MM NOT_NAMED 1922-05-22 06:00:00 NR 11.0546 123.663 main 24 24 __________P___ -1 11.0546 123.663 2 5 309
1922140N10128 1922 30 WP MM NOT_NAMED 1922-05-22 09:00:00 NR 11.2350 123.460 main 33 32 __________P___ -1 11.2350 123.460 2 5 314
1922140N10128 1922 30 WP MM NOT_NAMED 1922-05-22 10:00:00 NR 11.3000 123.400 main 32 21 __________O___ -1 11.3000 123.400 2 5 320
1922140N10128 1922 30 WP MM NOT_NAMED 1922-05-22 12:00:00 NR 11.4354 123.289 main 21 10 __________P___ -1 11.4354 123.289 2 5 325
1922140N10128 1922 30 WP MM NOT_NAMED 1922-05-22 15:00:00 NR 11.6576 123.147 main 22 22 __________P___ -1 11.6576 123.147 2 5 331
1922140N10128 1922 30 WP MM NOT_NAMED 1922-05-22 18:00:00 NR 11.8915 123.029 main 39 24 __________P___ -1 11.8915 123.029 2 5 336
1922140N10128 1922 30 WP MM NOT_NAMED 1922-05-22 21:00:00 NR 12.1246 122.930 main 34 32 __________P___ -1 12.1246 122.930 2 5 338
1922140N10128 1922 30 WP MM NOT_NAMED 1922-05-22 22:00:00 NR 12.2000 122.900 main 32 32 __________O___ -1 12.2000 122.900 2 5 338
1922140N10128 1922 30 WP MM NOT_NAMED 1922-05-23 00:00:00 NR 12.3443 122.836 main 44 48 __________P___ -1 12.3443 122.836 2 5 338
1922140N10128 1922 30 WP MM NOT_NAMED 1922-05-23 03:00:00 NR 12.5545 122.752 main 55 44 __________P___ -1 12.5545 122.752 2 4 339
1922140N10128 1922 30 WP MM NOT_NAMED 1922-05-23 06:00:00 NR 12.7545 122.681 main 44 33 __________P___ -1 12.7545 122.681 2 4 341
1922140N10128 1922 30 WP MM NOT_NAMED 1922-05-23 09:00:00 NR 12.9413 122.619 main 33 22 __________P___ -1 12.9413 122.619 2 4 343
1922140N10128 1922 30 WP MM NOT_NAMED 1922-05-23 10:00:00 NR 13.0000 122.600 main 22 11 __________O___ -1 13.0000 122.600 2 3 0
1922140N10128 1922 30 WP MM NOT_NAMED 1922-05-23 12:00:00 NR 13.0953 122.618 main 11 0 __________P___ -1 13.0953 122.618 2 3 12
1922140N10128 1922 30 WP MM NOT_NAMED 1922-05-23 15:00:00 NR 13.2254 122.653 main 0 0 __________P___ -1 13.2254 122.653 2 3 5
1922140N10128 1922 30 WP MM NOT_NAMED 1922-05-23 18:00:00 NR 13.3625 122.634 main 0 0 __________P___ -1 13.3625 122.634 2 3 333
1922140N10128 1922 30 WP MM NOT_NAMED 1922-05-23 21:00:00 NR 13.5319 122.489 main 0 0 __________P___ -1 13.5319 122.489 2 5 316
1922140N10128 1922 30 WP MM NOT_NAMED 1922-05-23 22:00:00 NR 13.6000 122.400 main 0 0 __________O___ -1 13.6000 122.400 2 9 306
1922140N10128 1922 30 WP MM NOT_NAMED 1922-05-24 00:00:00 NR 13.7871 122.132 main 0 0 __________P___ -1 13.7871 122.132 2 11 303
1922140N10128 1922 30 WP MM NOT_NAMED 1922-05-24 03:00:00 NR 14.1059 121.590 main 0 0 __________P___ -1 14.1059 121.590 2 13 299
1922140N10128 1922 30 WP MM NOT_NAMED 1922-05-24 06:00:00 NR 14.4313 120.937 main 0 0 __________P___ -1 14.4313 120.937 2 15 295
1922140N10128 1922 30 WP MM NOT_NAMED 1922-05-24 09:00:00 NR 14.7196 120.234 main 0 0 __________P___ -1 14.7196 120.234 2 15 292
1922140N10128 1922 30 WP MM NOT_NAMED 1922-05-24 10:00:00 NR 14.8000 120.000 main 10 10 __________O___ -1 14.8000 120.000 2 13 286
1922140N10128 1922 30 WP MM NOT_NAMED 1922-05-24 12:00:00 NR 14.9097 119.567 main 53 64 __________P___ -1 14.9097 119.567 2 13 282
1922140N10128 1922 30 WP MM NOT_NAMED 1922-05-24 15:00:00 NR 15.0237 118.905 main 116 116 __________P___ -1 15.0237 118.905 2 13 279
1922140N10128 1922 30 WP MM NOT_NAMED 1922-05-24 18:00:00 NR 15.1022 118.245 main 185 185 __________P___ -1 15.1022 118.245 2 13 277
1922140N10128 1922 30 WP MM NOT_NAMED 1922-05-24 21:00:00 NR 15.1731 117.605 main 242 242 __________P___ -1 15.1731 117.605 2 12 277
1922140N10128 1922 30 WP MM NOT_NAMED 1922-05-24 22:00:00 NR 15.2000 117.400 main 262 262 __________O___ -1 15.2000 117.400 2 12 279
1922140N10128 1922 30 WP MM NOT_NAMED 1922-05-25 00:00:00 NR 15.2613 117.013 main 299 299 __________P___ -1 15.2613 117.013 2 11 280
1922140N10128 1922 30 WP MM NOT_NAMED 1922-05-25 03:00:00 NR 15.3596 116.457 main 349 359 __________P___ -1 15.3596 116.457 2 11 282
1922140N10128 1922 30 WP MM NOT_NAMED 1922-05-25 06:00:00 NR 15.4795 115.919 main 410 410 __________P___ -1 15.4795 115.919 2 11 285
1922140N10128 1922 30 WP MM NOT_NAMED 1922-05-25 09:00:00 NR 15.6367 115.381 main 462 462 __________P___ -1 15.6367 115.381 2 11 288
1922140N10128 1922 30 WP MM NOT_NAMED 1922-05-25 10:00:00 NR 15.7000 115.200 main 482 482 __________O___ -1 15.7000 115.200 2 12 288
1922140N10128 1922 30 WP MM NOT_NAMED 1922-05-25 12:00:00 NR 15.8257 114.794 main 524 495 __________P___ -1 15.8257 114.794 2 13 290
1922140N10128 1922 30 WP MM NOT_NAMED 1922-05-25 15:00:00 NR 16.0516 114.177 main 495 431 __________P___ -1 16.0516 114.177 2 13 293
1922140N10128 1922 30 WP MM NOT_NAMED 1922-05-25 18:00:00 NR 16.3302 113.585 main 431 361 __________P___ -1 16.3302 113.585 2 12 300
1922140N10128 1922 30 WP MM NOT_NAMED 1922-05-25 21:00:00 NR 16.6710 113.056 main 361 338 __________P___ -1 16.6710 113.056 2 12 306
1922140N10128 1922 30 WP MM NOT_NAMED 1922-05-25 22:00:00 NR 16.8000 112.900 main 338 292 __________O___ -1 16.8000 112.900 3 12 314
1922140N10128 1922 30 WP MM NOT_NAMED 1922-05-26 00:00:00 NR 17.0710 112.616 main 292 239 __________P___ -1 17.0710 112.616 3 12 320
1922140N10128 1922 30 WP MM NOT_NAMED 1922-05-26 03:00:00 NR 17.5344 112.259 main 239 176 __________P___ -1 17.5344 112.259 3 12 328
1922140N10128 1922 30 WP MM NOT_NAMED 1922-05-26 06:00:00 NR 18.0523 111.977 main 176 134 __________P___ -1 18.0523 111.977 3 12 336
1922140N10128 1922 30 WP MM NOT_NAMED 1922-05-26 09:00:00 NR 18.6087 111.760 main 134 114 __________P___ -1 18.6087 111.760 3 12 341
1922140N10128 1922 30 WP MM NOT_NAMED 1922-05-26 10:00:00 NR 18.8000 111.700 main 114 77 __________O___ -1 18.8000 111.700 4 12 345
1922140N10128 1922 30 WP MM NOT_NAMED 1922-05-26 12:00:00 NR 19.1882 111.598 main 77 52 __________P___ -1 19.1882 111.598 4 12 348
1922140N10128 1922 30 WP MM NOT_NAMED 1922-05-26 15:00:00 NR 19.7822 111.479 main 56 53 __________P___ -1 19.7822 111.479 4 12 351
1922140N10128 1922 30 WP MM NOT_NAMED 1922-05-26 18:00:00 NR 20.3863 111.392 main 76 44 __________P___ -1 20.3863 111.392 4 12 353
1922140N10128 1922 30 WP MM NOT_NAMED 1922-05-26 21:00:00 NR 20.9962 111.322 main 44 22 __________P___ -1 20.9962 111.322 4 12 354
1922140N10128 1922 30 WP MM NOT_NAMED 1922-05-26 22:00:00 NR 21.2000 111.300 main 22 __________O___ -1 21.2000 111.300 4 12 352

Digital Typhoon Data and Search

About IBTrACS Database

This database is a web-friendly format of International Best Track Archive for Climate Stewardship (IBTrACS), a global best track data archive curated by NOAA dating back to 1842.

Updated: 2021-12-06